sensor_id;sensor_type;location;lat;lon;timestamp;P1;durP1;ratioP1;P2;durP2;ratioP2
60896;SDS011;46749;32.932;-117.130;2023-08-20T00:01:45;2.42;;;1.70;;
60896;SDS011;46749;32.932;-117.130;2023-08-20T00:04:11;3.00;;;1.50;;
60896;SDS011;46749;32.932;-117.130;2023-08-20T00:06:39;2.50;;;1.60;;
60896;SDS011;46749;32.932;-117.130;2023-08-20T00:09:08;2.05;;;1.50;;
60896;SDS011;46749;32.932;-117.130;2023-08-20T00:11:34;2.38;;;1.60;;
60896;SDS011;46749;32.932;-117.130;2023-08-20T00:14:00;3.17;;;1.83;;
60896;SDS011;46749;32.932;-117.130;2023-08-20T00:16:26;2.55;;;1.70;;
60896;SDS011;46749;32.932;-117.130;2023-08-20T00:18:53;2.65;;;2.35;;
60896;SDS011;46749;32.932;-117.130;2023-08-20T00:21:19;2.33;;;1.63;;
60896;SDS011;46749;32.932;-117.130;2023-08-20T00:23:46;2.78;;;1.90;;
60896;SDS011;46749;32.932;-117.130;2023-08-20T00:26:12;2.05;;;1.60;;
60896;SDS011;46749;32.932;-117.130;2023-08-20T00:28:39;2.65;;;1.75;;
60896;SDS011;46749;32.932;-117.130;2023-08-20T00:31:05;3.65;;;1.65;;
60896;SDS011;46749;32.932;-117.130;2023-08-20T00:33:31;4.55;;;1.83;;
60896;SDS011;46749;32.932;-117.130;2023-08-20T00:35:57;2.65;;;1.80;;
60896;SDS011;46749;32.932;-117.130;2023-08-20T00:38:24;2.60;;;1.80;;
60896;SDS011;46749;32.932;-117.130;2023-08-20T00:40:50;2.25;;;1.73;;
60896;SDS011;46749;32.932;-117.130;2023-08-20T00:43:16;1.90;;;1.55;;
60896;SDS011;46749;32.932;-117.130;2023-08-20T00:45:42;2.10;;;1.60;;
60896;SDS011;46749;32.932;-117.130;2023-08-20T00:48:09;2.67;;;1.90;;
60896;SDS011;46749;32.932;-117.130;2023-08-20T00:50:36;2.67;;;1.60;;
60896;SDS011;46749;32.932;-117.130;2023-08-20T00:53:03;2.75;;;1.90;;
60896;SDS011;46749;32.932;-117.130;2023-08-20T00:55:30;2.15;;;1.73;;
60896;SDS011;46749;32.932;-117.130;2023-08-20T00:57:56;3.40;;;1.85;;
60896;SDS011;46749;32.932;-117.130;2023-08-20T01:00:23;2.60;;;1.75;;
60896;SDS011;46749;32.932;-117.130;2023-08-20T01:02:50;2.90;;;1.70;;
60896;SDS011;46749;32.932;-117.130;2023-08-20T01:05:16;2.83;;;1.70;;
60896;SDS011;46749;32.932;-117.130;2023-08-20T01:10:39;3.25;;;2.00;;
60896;SDS011;46749;32.932;-117.130;2023-08-20T01:13:10;4.38;;;2.78;;
60896;SDS011;46749;32.932;-117.130;2023-08-20T01:15:37;3.17;;;2.10;;
60896;SDS011;46749;32.932;-117.130;2023-08-20T01:18:03;2.40;;;1.67;;
60896;SDS011;46749;32.932;-117.130;2023-08-20T01:20:31;3.28;;;2.10;;
60896;SDS011;46749;32.932;-117.130;2023-08-20T01:23:22;2.65;;;1.85;;
60896;SDS011;46749;32.932;-117.130;2023-08-20T01:28:33;3.08;;;1.90;;
60896;SDS011;46749;32.932;-117.130;2023-08-20T01:31:01;3.38;;;1.73;;
60896;SDS011;46749;32.932;-117.130;2023-08-20T01:33:29;4.55;;;2.10;;
60896;SDS011;46749;32.932;-117.130;2023-08-20T01:35:56;3.13;;;2.20;;
60896;SDS011;46749;32.932;-117.130;2023-08-20T01:38:22;1.98;;;1.70;;
60896;SDS011;46749;32.932;-117.130;2023-08-20T01:40:48;3.05;;;2.33;;
60896;SDS011;46749;32.932;-117.130;2023-08-20T01:43:15;3.50;;;2.20;;
60896;SDS011;46749;32.932;-117.130;2023-08-20T01:45:41;4.10;;;2.20;;
60896;SDS011;46749;32.932;-117.130;2023-08-20T01:48:08;3.50;;;2.13;;
60896;SDS011;46749;32.932;-117.130;2023-08-20T01:50:34;3.45;;;2.25;;
60896;SDS011;46749;32.932;-117.130;2023-08-20T01:53:01;3.08;;;2.00;;
60896;SDS011;46749;32.932;-117.130;2023-08-20T01:55:28;6.00;;;2.47;;
60896;SDS011;46749;32.932;-117.130;2023-08-20T01:57:54;4.18;;;2.40;;
60896;SDS011;46749;32.932;-117.130;2023-08-20T02:00:20;3.17;;;2.10;;
60896;SDS011;46749;32.932;-117.130;2023-08-20T02:02:47;5.50;;;2.78;;
60896;SDS011;46749;32.932;-117.130;2023-08-20T02:05:13;5.07;;;2.63;;
60896;SDS011;46749;32.932;-117.130;2023-08-20T02:07:39;3.10;;;2.30;;
60896;SDS011;46749;32.932;-117.130;2023-08-20T02:10:05;4.10;;;2.58;;
60896;SDS011;46749;32.932;-117.130;2023-08-20T02:12:32;5.35;;;2.95;;
60896;SDS011;46749;32.932;-117.130;2023-08-20T02:15:00;5.10;;;2.53;;
60896;SDS011;46749;32.932;-117.130;2023-08-20T02:17:27;4.47;;;2.67;;
60896;SDS011;46749;32.932;-117.130;2023-08-20T02:19:53;5.35;;;2.25;;
60896;SDS011;46749;32.932;-117.130;2023-08-20T02:22:19;4.60;;;2.50;;
60896;SDS011;46749;32.932;-117.130;2023-08-20T02:24:46;5.40;;;2.95;;
60896;SDS011;46749;32.932;-117.130;2023-08-20T02:27:12;5.63;;;2.85;;
60896;SDS011;46749;32.932;-117.130;2023-08-20T02:29:38;4.93;;;2.55;;
60896;SDS011;46749;32.932;-117.130;2023-08-20T02:32:04;3.17;;;2.33;;
60896;SDS011;46749;32.932;-117.130;2023-08-20T02:34:31;3.13;;;2.50;;
60896;SDS011;46749;32.932;-117.130;2023-08-20T02:36:57;5.05;;;2.97;;
60896;SDS011;46749;32.932;-117.130;2023-08-20T02:39:23;4.03;;;2.35;;
60896;SDS011;46749;32.932;-117.130;2023-08-20T02:41:50;4.07;;;2.50;;
60896;SDS011;46749;32.932;-117.130;2023-08-20T02:44:16;4.63;;;2.80;;
60896;SDS011;46749;32.932;-117.130;2023-08-20T02:46:42;4.97;;;2.67;;
60896;SDS011;46749;32.932;-117.130;2023-08-20T02:49:10;3.88;;;2.30;;
60896;SDS011;46749;32.932;-117.130;2023-08-20T02:51:36;5.53;;;2.80;;
60896;SDS011;46749;32.932;-117.130;2023-08-20T02:54:02;4.93;;;2.80;;
60896;SDS011;46749;32.932;-117.130;2023-08-20T02:56:28;4.43;;;2.80;;
60896;SDS011;46749;32.932;-117.130;2023-08-20T02:58:55;3.92;;;2.38;;
60896;SDS011;46749;32.932;-117.130;2023-08-20T03:01:22;4.20;;;2.58;;
60896;SDS011;46749;32.932;-117.130;2023-08-20T03:03:49;4.95;;;2.70;;
60896;SDS011;46749;32.932;-117.130;2023-08-20T03:06:15;4.35;;;2.40;;
60896;SDS011;46749;32.932;-117.130;2023-08-20T03:08:41;3.08;;;2.47;;
60896;SDS011;46749;32.932;-117.130;2023-08-20T03:11:07;4.88;;;2.42;;
60896;SDS011;46749;32.932;-117.130;2023-08-20T03:13:33;4.72;;;2.88;;
60896;SDS011;46749;32.932;-117.130;2023-08-20T03:16:00;5.68;;;3.22;;
60896;SDS011;46749;32.932;-117.130;2023-08-20T03:18:26;5.20;;;2.58;;
60896;SDS011;46749;32.932;-117.130;2023-08-20T03:20:54;4.47;;;2.80;;
60896;SDS011;46749;32.932;-117.130;2023-08-20T03:23:21;4.50;;;2.78;;
60896;SDS011;46749;32.932;-117.130;2023-08-20T03:25:48;4.20;;;2.47;;
60896;SDS011;46749;32.932;-117.130;2023-08-20T03:28:14;4.65;;;2.60;;
60896;SDS011;46749;32.932;-117.130;2023-08-20T03:30:41;5.50;;;2.60;;
60896;SDS011;46749;32.932;-117.130;2023-08-20T03:33:07;6.25;;;3.35;;
60896;SDS011;46749;32.932;-117.130;2023-08-20T03:35:33;4.70;;;3.03;;
60896;SDS011;46749;32.932;-117.130;2023-08-20T03:37:59;5.07;;;2.75;;
60896;SDS011;46749;32.932;-117.130;2023-08-20T03:40:27;4.50;;;2.60;;
60896;SDS011;46749;32.932;-117.130;2023-08-20T03:42:53;3.35;;;2.40;;
60896;SDS011;46749;32.932;-117.130;2023-08-20T03:45:19;4.13;;;2.70;;
60896;SDS011;46749;32.932;-117.130;2023-08-20T03:47:45;3.80;;;2.55;;
60896;SDS011;46749;32.932;-117.130;2023-08-20T03:50:12;5.28;;;2.95;;
60896;SDS011;46749;32.932;-117.130;2023-08-20T03:52:38;3.55;;;2.42;;
60896;SDS011;46749;32.932;-117.130;2023-08-20T03:55:05;3.53;;;2.67;;
60896;SDS011;46749;32.932;-117.130;2023-08-20T03:57:31;3.72;;;2.85;;
60896;SDS011;46749;32.932;-117.130;2023-08-20T03:59:57;3.72;;;2.80;;
60896;SDS011;46749;32.932;-117.130;2023-08-20T04:02:24;4.47;;;2.50;;
60896;SDS011;46749;32.932;-117.130;2023-08-20T04:04:50;3.20;;;2.50;;
60896;SDS011;46749;32.932;-117.130;2023-08-20T04:07:17;4.03;;;2.80;;
60896;SDS011;46749;32.932;-117.130;2023-08-20T04:09:44;5.45;;;2.97;;
60896;SDS011;46749;32.932;-117.130;2023-08-20T04:12:10;5.20;;;2.80;;
60896;SDS011;46749;32.932;-117.130;2023-08-20T04:14:36;5.22;;;3.00;;
60896;SDS011;46749;32.932;-117.130;2023-08-20T04:17:02;4.13;;;2.88;;
60896;SDS011;46749;32.932;-117.130;2023-08-20T04:19:29;3.28;;;2.72;;
60896;SDS011;46749;32.932;-117.130;2023-08-20T04:21:55;4.43;;;2.55;;
60896;SDS011;46749;32.932;-117.130;2023-08-20T04:24:21;4.63;;;2.50;;
60896;SDS011;46749;32.932;-117.130;2023-08-20T04:26:48;4.55;;;2.80;;
60896;SDS011;46749;32.932;-117.130;2023-08-20T04:29:14;4.90;;;2.78;;
60896;SDS011;46749;32.932;-117.130;2023-08-20T04:31:40;4.47;;;2.72;;
60896;SDS011;46749;32.932;-117.130;2023-08-20T04:34:07;3.97;;;3.15;;
60896;SDS011;46749;32.932;-117.130;2023-08-20T04:36:33;6.20;;;3.42;;
60896;SDS011;46749;32.932;-117.130;2023-08-20T04:38:59;4.95;;;3.28;;
60896;SDS011;46749;32.932;-117.130;2023-08-20T04:41:26;6.60;;;2.90;;
60896;SDS011;46749;32.932;-117.130;2023-08-20T04:43:52;6.20;;;3.00;;
60896;SDS011;46749;32.932;-117.130;2023-08-20T04:46:18;7.07;;;3.20;;
60896;SDS011;46749;32.932;-117.130;2023-08-20T04:48:46;5.45;;;2.95;;
60896;SDS011;46749;32.932;-117.130;2023-08-20T04:51:12;5.65;;;3.00;;
60896;SDS011;46749;32.932;-117.130;2023-08-20T04:53:38;7.43;;;3.08;;
60896;SDS011;46749;32.932;-117.130;2023-08-20T04:56:04;6.10;;;3.40;;
60896;SDS011;46749;32.932;-117.130;2023-08-20T04:58:30;7.10;;;3.20;;
60896;SDS011;46749;32.932;-117.130;2023-08-20T05:00:56;4.75;;;2.97;;
60896;SDS011;46749;32.932;-117.130;2023-08-20T05:03:22;7.00;;;3.58;;
60896;SDS011;46749;32.932;-117.130;2023-08-20T05:05:49;5.90;;;3.25;;
60896;SDS011;46749;32.932;-117.130;2023-08-20T05:08:16;7.00;;;3.05;;
60896;SDS011;46749;32.932;-117.130;2023-08-20T05:10:42;5.55;;;3.25;;
60896;SDS011;46749;32.932;-117.130;2023-08-20T05:13:08;4.72;;;3.40;;
60896;SDS011;46749;32.932;-117.130;2023-08-20T05:15:35;4.72;;;2.75;;
60896;SDS011;46749;32.932;-117.130;2023-08-20T05:18:01;5.13;;;2.83;;
60896;SDS011;46749;32.932;-117.130;2023-08-20T05:20:27;6.30;;;3.47;;
60896;SDS011;46749;32.932;-117.130;2023-08-20T05:22:53;5.57;;;2.90;;
60896;SDS011;46749;32.932;-117.130;2023-08-20T05:25:19;4.70;;;3.10;;
60896;SDS011;46749;32.932;-117.130;2023-08-20T05:27:46;4.30;;;3.10;;
60896;SDS011;46749;32.932;-117.130;2023-08-20T05:30:12;4.50;;;3.20;;
60896;SDS011;46749;32.932;-117.130;2023-08-20T05:32:38;7.20;;;3.40;;
60896;SDS011;46749;32.932;-117.130;2023-08-20T05:35:04;4.32;;;2.80;;
60896;SDS011;46749;32.932;-117.130;2023-08-20T05:37:31;4.93;;;3.17;;
60896;SDS011;46749;32.932;-117.130;2023-08-20T05:39:57;8.18;;;3.75;;
60896;SDS011;46749;32.932;-117.130;2023-08-20T05:42:23;5.60;;;3.08;;
60896;SDS011;46749;32.932;-117.130;2023-08-20T05:44:50;5.93;;;2.83;;
60896;SDS011;46749;32.932;-117.130;2023-08-20T05:47:16;6.25;;;3.20;;
60896;SDS011;46749;32.932;-117.130;2023-08-20T05:49:42;6.35;;;3.10;;
60896;SDS011;46749;32.932;-117.130;2023-08-20T05:52:08;5.35;;;2.80;;
60896;SDS011;46749;32.932;-117.130;2023-08-20T05:54:34;5.50;;;3.15;;
60896;SDS011;46749;32.932;-117.130;2023-08-20T05:57:00;6.35;;;3.15;;
60896;SDS011;46749;32.932;-117.130;2023-08-20T05:59:28;6.32;;;3.30;;
60896;SDS011;46749;32.932;-117.130;2023-08-20T06:01:54;6.10;;;3.55;;
60896;SDS011;46749;32.932;-117.130;2023-08-20T06:04:20;5.50;;;3.13;;
60896;SDS011;46749;32.932;-117.130;2023-08-20T06:06:47;5.35;;;3.05;;
60896;SDS011;46749;32.932;-117.130;2023-08-20T06:09:13;3.95;;;3.00;;
60896;SDS011;46749;32.932;-117.130;2023-08-20T06:11:39;4.28;;;3.10;;
60896;SDS011;46749;32.932;-117.130;2023-08-20T06:14:05;6.35;;;3.47;;
60896;SDS011;46749;32.932;-117.130;2023-08-20T06:16:31;7.43;;;3.35;;
60896;SDS011;46749;32.932;-117.130;2023-08-20T06:18:58;4.85;;;3.17;;
60896;SDS011;46749;32.932;-117.130;2023-08-20T06:21:24;5.78;;;3.08;;
60896;SDS011;46749;32.932;-117.130;2023-08-20T06:23:50;5.82;;;3.42;;
60896;SDS011;46749;32.932;-117.130;2023-08-20T06:26:16;5.47;;;3.05;;
60896;SDS011;46749;32.932;-117.130;2023-08-20T06:28:42;5.40;;;3.45;;
60896;SDS011;46749;32.932;-117.130;2023-08-20T06:31:08;6.95;;;3.13;;
60896;SDS011;46749;32.932;-117.130;2023-08-20T06:33:34;4.68;;;3.08;;
60896;SDS011;46749;32.932;-117.130;2023-08-20T06:36:01;6.38;;;3.40;;
60896;SDS011;46749;32.932;-117.130;2023-08-20T06:38:27;6.25;;;3.45;;
60896;SDS011;46749;32.932;-117.130;2023-08-20T06:40:53;5.43;;;3.22;;
60896;SDS011;46749;32.932;-117.130;2023-08-20T06:43:19;6.40;;;3.35;;
60896;SDS011;46749;32.932;-117.130;2023-08-20T06:45:45;4.10;;;2.90;;
60896;SDS011;46749;32.932;-117.130;2023-08-20T06:48:12;5.18;;;3.22;;
60896;SDS011;46749;32.932;-117.130;2023-08-20T06:50:38;4.68;;;2.88;;
60896;SDS011;46749;32.932;-117.130;2023-08-20T06:53:04;5.55;;;3.17;;
60896;SDS011;46749;32.932;-117.130;2023-08-20T06:55:30;4.97;;;3.22;;
60896;SDS011;46749;32.932;-117.130;2023-08-20T06:57:56;4.47;;;2.70;;
60896;SDS011;46749;32.932;-117.130;2023-08-20T07:00:23;5.82;;;3.25;;
60896;SDS011;46749;32.932;-117.130;2023-08-20T07:02:49;7.07;;;2.90;;
60896;SDS011;46749;32.932;-117.130;2023-08-20T07:05:15;6.93;;;3.10;;
60896;SDS011;46749;32.932;-117.130;2023-08-20T07:07:42;5.88;;;3.03;;
60896;SDS011;46749;32.932;-117.130;2023-08-20T07:10:09;5.07;;;3.00;;
60896;SDS011;46749;32.932;-117.130;2023-08-20T07:12:35;4.28;;;3.25;;
60896;SDS011;46749;32.932;-117.130;2023-08-20T07:15:01;4.93;;;2.92;;
60896;SDS011;46749;32.932;-117.130;2023-08-20T07:17:29;3.75;;;2.75;;
60896;SDS011;46749;32.932;-117.130;2023-08-20T07:19:55;3.33;;;2.58;;
60896;SDS011;46749;32.932;-117.130;2023-08-20T07:22:21;4.50;;;3.03;;
60896;SDS011;46749;32.932;-117.130;2023-08-20T07:24:47;4.78;;;3.38;;
60896;SDS011;46749;32.932;-117.130;2023-08-20T07:27:13;4.70;;;2.80;;
60896;SDS011;46749;32.932;-117.130;2023-08-20T07:29:40;4.50;;;2.83;;
60896;SDS011;46749;32.932;-117.130;2023-08-20T07:32:07;4.20;;;3.08;;
60896;SDS011;46749;32.932;-117.130;2023-08-20T07:34:33;5.05;;;3.15;;
60896;SDS011;46749;32.932;-117.130;2023-08-20T07:37:00;4.97;;;3.17;;
60896;SDS011;46749;32.932;-117.130;2023-08-20T07:39:26;5.20;;;3.25;;
60896;SDS011;46749;32.932;-117.130;2023-08-20T07:41:53;4.45;;;3.10;;
60896;SDS011;46749;32.932;-117.130;2023-08-20T07:44:19;5.72;;;3.10;;
60896;SDS011;46749;32.932;-117.130;2023-08-20T07:46:45;4.85;;;2.88;;
60896;SDS011;46749;32.932;-117.130;2023-08-20T07:49:11;3.65;;;2.50;;
60896;SDS011;46749;32.932;-117.130;2023-08-20T07:51:37;6.00;;;2.83;;
60896;SDS011;46749;32.932;-117.130;2023-08-20T07:54:03;5.10;;;2.90;;
60896;SDS011;46749;32.932;-117.130;2023-08-20T07:56:30;4.55;;;2.72;;
60896;SDS011;46749;32.932;-117.130;2023-08-20T07:58:56;4.63;;;2.60;;
60896;SDS011;46749;32.932;-117.130;2023-08-20T08:01:22;4.60;;;2.42;;
60896;SDS011;46749;32.932;-117.130;2023-08-20T08:03:48;5.30;;;3.33;;
60896;SDS011;46749;32.932;-117.130;2023-08-20T08:06:15;5.63;;;3.05;;
60896;SDS011;46749;32.932;-117.130;2023-08-20T08:08:43;3.42;;;2.53;;
60896;SDS011;46749;32.932;-117.130;2023-08-20T08:11:09;7.25;;;3.10;;
60896;SDS011;46749;32.932;-117.130;2023-08-20T08:13:36;5.30;;;2.70;;
60896;SDS011;46749;32.932;-117.130;2023-08-20T08:16:02;4.05;;;2.92;;
60896;SDS011;46749;32.932;-117.130;2023-08-20T08:18:28;4.38;;;3.20;;
60896;SDS011;46749;32.932;-117.130;2023-08-20T08:20:54;5.43;;;3.20;;
60896;SDS011;46749;32.932;-117.130;2023-08-20T08:23:20;5.05;;;2.80;;
60896;SDS011;46749;32.932;-117.130;2023-08-20T08:25:46;3.88;;;2.47;;
60896;SDS011;46749;32.932;-117.130;2023-08-20T08:28:12;4.78;;;2.92;;
60896;SDS011;46749;32.932;-117.130;2023-08-20T08:30:39;4.07;;;2.90;;
60896;SDS011;46749;32.932;-117.130;2023-08-20T08:33:05;5.20;;;2.80;;
60896;SDS011;46749;32.932;-117.130;2023-08-20T08:35:31;4.03;;;2.75;;
60896;SDS011;46749;32.932;-117.130;2023-08-20T08:37:58;4.18;;;2.90;;
60896;SDS011;46749;32.932;-117.130;2023-08-20T08:40:26;5.43;;;3.20;;
60896;SDS011;46749;32.932;-117.130;2023-08-20T08:42:54;5.15;;;2.90;;
60896;SDS011;46749;32.932;-117.130;2023-08-20T08:45:21;5.15;;;3.00;;
60896;SDS011;46749;32.932;-117.130;2023-08-20T08:47:48;3.65;;;2.58;;
60896;SDS011;46749;32.932;-117.130;2023-08-20T08:50:16;4.40;;;3.03;;
60896;SDS011;46749;32.932;-117.130;2023-08-20T08:52:43;3.20;;;2.33;;
60896;SDS011;46749;32.932;-117.130;2023-08-20T08:55:12;4.47;;;2.88;;
60896;SDS011;46749;32.932;-117.130;2023-08-20T08:57:39;4.53;;;2.58;;
60896;SDS011;46749;32.932;-117.130;2023-08-20T09:00:05;4.85;;;2.80;;
60896;SDS011;46749;32.932;-117.130;2023-08-20T09:02:32;3.38;;;2.45;;
60896;SDS011;46749;32.932;-117.130;2023-08-20T09:04:58;3.17;;;2.60;;
60896;SDS011;46749;32.932;-117.130;2023-08-20T09:07:25;4.53;;;2.70;;
60896;SDS011;46749;32.932;-117.130;2023-08-20T09:09:51;5.03;;;2.97;;
60896;SDS011;46749;32.932;-117.130;2023-08-20T09:12:26;3.95;;;2.47;;
60896;SDS011;46749;32.932;-117.130;2023-08-20T09:14:53;5.30;;;2.90;;
60896;SDS011;46749;32.932;-117.130;2023-08-20T09:17:24;3.47;;;2.53;;
60896;SDS011;46749;32.932;-117.130;2023-08-20T09:19:53;4.60;;;2.65;;
60896;SDS011;46749;32.932;-117.130;2023-08-20T09:22:23;5.55;;;2.55;;
60896;SDS011;46749;32.932;-117.130;2023-08-20T09:24:56;5.57;;;2.90;;
60896;SDS011;46749;32.932;-117.130;2023-08-20T09:27:23;4.95;;;2.53;;
60896;SDS011;46749;32.932;-117.130;2023-08-20T09:29:53;3.60;;;2.47;;
60896;SDS011;46749;32.932;-117.130;2023-08-20T09:32:21;4.60;;;3.20;;
60896;SDS011;46749;32.932;-117.130;2023-08-20T09:34:49;4.20;;;2.45;;
60896;SDS011;46749;32.932;-117.130;2023-08-20T09:37:18;3.03;;;2.30;;
60896;SDS011;46749;32.932;-117.130;2023-08-20T09:39:46;3.20;;;2.30;;
60896;SDS011;46749;32.932;-117.130;2023-08-20T09:42:12;3.08;;;2.13;;
60896;SDS011;46749;32.932;-117.130;2023-08-20T09:44:43;4.35;;;2.63;;
60896;SDS011;46749;32.932;-117.130;2023-08-20T09:47:14;3.47;;;2.13;;
60896;SDS011;46749;32.932;-117.130;2023-08-20T09:49:42;3.58;;;2.25;;
60896;SDS011;46749;32.932;-117.130;2023-08-20T09:52:10;4.47;;;2.50;;
60896;SDS011;46749;32.932;-117.130;2023-08-20T09:57:40;2.63;;;2.25;;
60896;SDS011;46749;32.932;-117.130;2023-08-20T10:00:07;4.13;;;2.88;;
60896;SDS011;46749;32.932;-117.130;2023-08-20T10:02:38;3.78;;;2.30;;
60896;SDS011;46749;32.932;-117.130;2023-08-20T10:05:08;3.20;;;2.30;;
60896;SDS011;46749;32.932;-117.130;2023-08-20T10:07:36;4.05;;;2.70;;
60896;SDS011;46749;32.932;-117.130;2023-08-20T10:10:04;3.33;;;2.25;;
60896;SDS011;46749;32.932;-117.130;2023-08-20T10:12:32;4.28;;;2.30;;
60896;SDS011;46749;32.932;-117.130;2023-08-20T10:14:59;3.38;;;2.25;;
60896;SDS011;46749;32.932;-117.130;2023-08-20T10:17:29;3.45;;;2.35;;
60896;SDS011;46749;32.932;-117.130;2023-08-20T10:19:58;3.33;;;2.35;;
60896;SDS011;46749;32.932;-117.130;2023-08-20T10:22:37;3.63;;;2.30;;
60896;SDS011;46749;32.932;-117.130;2023-08-20T10:25:05;3.53;;;2.58;;
60896;SDS011;46749;32.932;-117.130;2023-08-20T10:27:39;2.58;;;2.22;;
60896;SDS011;46749;32.932;-117.130;2023-08-20T10:30:11;2.88;;;2.15;;
60896;SDS011;46749;32.932;-117.130;2023-08-20T10:35:16;2.70;;;1.92;;
60896;SDS011;46749;32.932;-117.130;2023-08-20T10:40:58;2.63;;;1.83;;
60896;SDS011;46749;32.932;-117.130;2023-08-20T10:43:31;4.00;;;2.20;;
60896;SDS011;46749;32.932;-117.130;2023-08-20T10:46:15;3.65;;;2.58;;
60896;SDS011;46749;32.932;-117.130;2023-08-20T10:48:44;2.60;;;2.00;;
60896;SDS011;46749;32.932;-117.130;2023-08-20T10:51:13;2.97;;;2.38;;
60896;SDS011;46749;32.932;-117.130;2023-08-20T10:53:40;3.20;;;2.40;;
60896;SDS011;46749;32.932;-117.130;2023-08-20T10:56:14;4.20;;;2.22;;
60896;SDS011;46749;32.932;-117.130;2023-08-20T10:58:42;3.70;;;2.30;;
60896;SDS011;46749;32.932;-117.130;2023-08-20T11:01:16;3.08;;;1.95;;
60896;SDS011;46749;32.932;-117.130;2023-08-20T11:03:44;3.53;;;2.25;;
60896;SDS011;46749;32.932;-117.130;2023-08-20T11:06:11;3.50;;;2.47;;
60896;SDS011;46749;32.932;-117.130;2023-08-20T11:08:38;3.45;;;2.53;;
60896;SDS011;46749;32.932;-117.130;2023-08-20T11:11:07;3.05;;;2.20;;
60896;SDS011;46749;32.932;-117.130;2023-08-20T11:13:34;3.35;;;2.35;;
60896;SDS011;46749;32.932;-117.130;2023-08-20T11:16:04;3.85;;;2.25;;
60896;SDS011;46749;32.932;-117.130;2023-08-20T11:18:32;2.40;;;1.95;;
60896;SDS011;46749;32.932;-117.130;2023-08-20T11:20:59;3.60;;;2.75;;
60896;SDS011;46749;32.932;-117.130;2023-08-20T11:23:25;3.17;;;2.40;;
60896;SDS011;46749;32.932;-117.130;2023-08-20T11:25:52;4.35;;;2.45;;
60896;SDS011;46749;32.932;-117.130;2023-08-20T11:28:18;2.58;;;1.95;;
60896;SDS011;46749;32.932;-117.130;2023-08-20T11:30:45;3.65;;;2.00;;
60896;SDS011;46749;32.932;-117.130;2023-08-20T11:33:12;3.45;;;2.50;;
60896;SDS011;46749;32.932;-117.130;2023-08-20T11:35:38;4.03;;;2.10;;
60896;SDS011;46749;32.932;-117.130;2023-08-20T11:38:06;2.25;;;1.95;;
60896;SDS011;46749;32.932;-117.130;2023-08-20T11:40:33;3.30;;;1.70;;
60896;SDS011;46749;32.932;-117.130;2023-08-20T11:42:59;3.72;;;2.30;;
60896;SDS011;46749;32.932;-117.130;2023-08-20T11:45:26;5.00;;;2.33;;
60896;SDS011;46749;32.932;-117.130;2023-08-20T11:47:55;3.80;;;2.25;;
60896;SDS011;46749;32.932;-117.130;2023-08-20T11:50:23;4.63;;;2.13;;
60896;SDS011;46749;32.932;-117.130;2023-08-20T11:52:51;5.25;;;2.28;;
60896;SDS011;46749;32.932;-117.130;2023-08-20T11:55:24;3.60;;;2.50;;
60896;SDS011;46749;32.932;-117.130;2023-08-20T11:57:51;3.30;;;2.40;;
60896;SDS011;46749;32.932;-117.130;2023-08-20T12:00:24;3.00;;;2.35;;
60896;SDS011;46749;32.932;-117.130;2023-08-20T12:02:53;3.58;;;2.15;;
60896;SDS011;46749;32.932;-117.130;2023-08-20T12:05:29;4.00;;;2.33;;
60896;SDS011;46749;32.932;-117.130;2023-08-20T12:07:59;3.20;;;2.17;;
60896;SDS011;46749;32.932;-117.130;2023-08-20T12:10:29;3.90;;;2.28;;
60896;SDS011;46749;32.932;-117.130;2023-08-20T12:12:56;5.22;;;2.33;;
60896;SDS011;46749;32.932;-117.130;2023-08-20T12:15:24;4.15;;;2.65;;
60896;SDS011;46749;32.932;-117.130;2023-08-20T12:18:03;3.30;;;2.13;;
60896;SDS011;46749;32.932;-117.130;2023-08-20T12:20:32;3.72;;;2.22;;
60896;SDS011;46749;32.932;-117.130;2023-08-20T12:23:00;4.00;;;2.38;;
60896;SDS011;46749;32.932;-117.130;2023-08-20T12:25:30;3.08;;;2.00;;
60896;SDS011;46749;32.932;-117.130;2023-08-20T12:27:59;3.63;;;2.22;;
60896;SDS011;46749;32.932;-117.130;2023-08-20T12:30:26;5.40;;;3.17;;
60896;SDS011;46749;32.932;-117.130;2023-08-20T12:32:52;5.38;;;2.67;;
60896;SDS011;46749;32.932;-117.130;2023-08-20T12:35:18;3.42;;;2.10;;
60896;SDS011;46749;32.932;-117.130;2023-08-20T12:37:44;3.90;;;2.58;;
60896;SDS011;46749;32.932;-117.130;2023-08-20T12:40:11;4.32;;;2.45;;
60896;SDS011;46749;32.932;-117.130;2023-08-20T12:42:38;3.63;;;2.47;;
60896;SDS011;46749;32.932;-117.130;2023-08-20T12:45:05;4.28;;;2.45;;
60896;SDS011;46749;32.932;-117.130;2023-08-20T12:47:32;2.67;;;2.38;;
60896;SDS011;46749;32.932;-117.130;2023-08-20T12:50:00;3.67;;;2.78;;
60896;SDS011;46749;32.932;-117.130;2023-08-20T12:52:26;2.75;;;1.85;;
60896;SDS011;46749;32.932;-117.130;2023-08-20T12:54:52;5.03;;;2.45;;
60896;SDS011;46749;32.932;-117.130;2023-08-20T12:57:19;5.65;;;2.80;;
60896;SDS011;46749;32.932;-117.130;2023-08-20T12:59:46;2.90;;;2.28;;
60896;SDS011;46749;32.932;-117.130;2023-08-20T13:02:12;5.00;;;2.47;;
60896;SDS011;46749;32.932;-117.130;2023-08-20T13:04:39;2.78;;;2.00;;
60896;SDS011;46749;32.932;-117.130;2023-08-20T13:07:05;2.97;;;1.85;;
60896;SDS011;46749;32.932;-117.130;2023-08-20T13:09:32;4.78;;;2.60;;
60896;SDS011;46749;32.932;-117.130;2023-08-20T13:12:00;3.22;;;2.28;;
60896;SDS011;46749;32.932;-117.130;2023-08-20T13:14:29;3.35;;;2.17;;
60896;SDS011;46749;32.932;-117.130;2023-08-20T13:16:55;3.50;;;2.22;;
60896;SDS011;46749;32.932;-117.130;2023-08-20T13:19:22;3.15;;;2.28;;
60896;SDS011;46749;32.932;-117.130;2023-08-20T13:21:48;4.28;;;2.40;;
60896;SDS011;46749;32.932;-117.130;2023-08-20T13:24:14;3.38;;;2.45;;
60896;SDS011;46749;32.932;-117.130;2023-08-20T13:26:40;3.13;;;2.00;;
60896;SDS011;46749;32.932;-117.130;2023-08-20T13:29:07;2.85;;;1.98;;
60896;SDS011;46749;32.932;-117.130;2023-08-20T13:31:33;2.92;;;2.30;;
60896;SDS011;46749;32.932;-117.130;2023-08-20T13:34:01;3.85;;;2.25;;
60896;SDS011;46749;32.932;-117.130;2023-08-20T13:36:27;3.92;;;2.70;;
60896;SDS011;46749;32.932;-117.130;2023-08-20T13:38:54;4.55;;;2.50;;
60896;SDS011;46749;32.932;-117.130;2023-08-20T13:41:20;3.78;;;2.85;;
60896;SDS011;46749;32.932;-117.130;2023-08-20T13:43:47;3.50;;;2.60;;
60896;SDS011;46749;32.932;-117.130;2023-08-20T13:46:13;2.53;;;2.08;;
60896;SDS011;46749;32.932;-117.130;2023-08-20T13:48:39;3.17;;;1.98;;
60896;SDS011;46749;32.932;-117.130;2023-08-20T13:51:05;2.60;;;1.98;;
60896;SDS011;46749;32.932;-117.130;2023-08-20T13:53:31;3.03;;;2.28;;
60896;SDS011;46749;32.932;-117.130;2023-08-20T13:55:57;3.42;;;2.45;;
60896;SDS011;46749;32.932;-117.130;2023-08-20T13:58:23;3.80;;;2.00;;
60896;SDS011;46749;32.932;-117.130;2023-08-20T14:00:50;3.22;;;2.17;;
60896;SDS011;46749;32.932;-117.130;2023-08-20T14:03:16;3.05;;;2.25;;
60896;SDS011;46749;32.932;-117.130;2023-08-20T14:05:42;2.75;;;2.10;;
60896;SDS011;46749;32.932;-117.130;2023-08-20T14:08:11;4.85;;;2.67;;
60896;SDS011;46749;32.932;-117.130;2023-08-20T14:10:37;3.50;;;2.13;;
60896;SDS011;46749;32.932;-117.130;2023-08-20T14:13:03;3.55;;;1.95;;
60896;SDS011;46749;32.932;-117.130;2023-08-20T14:15:29;3.67;;;2.58;;
60896;SDS011;46749;32.932;-117.130;2023-08-20T14:17:55;2.72;;;2.03;;
60896;SDS011;46749;32.932;-117.130;2023-08-20T14:20:22;3.50;;;2.33;;
60896;SDS011;46749;32.932;-117.130;2023-08-20T14:22:48;3.45;;;2.20;;